createdAt,value
2023-03-17T00:00:04.784Z,7.85
2023-03-17T00:01:07.455Z,7.40
2023-03-17T00:02:10.079Z,7.33
2023-03-17T00:03:13.199Z,7.35
2023-03-17T00:04:15.872Z,7.52
2023-03-17T00:05:18.961Z,8.28
2023-03-17T00:06:21.663Z,8.87
2023-03-17T00:07:24.292Z,9.25
2023-03-17T00:08:26.961Z,9.97
2023-03-17T00:09:29.630Z,9.68
2023-03-17T00:10:33.121Z,9.47
2023-03-17T00:11:35.812Z,9.80
2023-03-17T00:12:38.360Z,9.56
2023-03-17T00:13:40.926Z,8.84
2023-03-17T00:14:43.491Z,9.49
2023-03-17T00:15:46.099Z,9.18
2023-03-17T00:16:48.622Z,9.92
2023-03-17T00:17:51.299Z,10.13
2023-03-17T00:18:54.068Z,9.75
2023-03-17T00:19:56.845Z,9.92
2023-03-17T00:20:59.953Z,10.89
2023-03-17T00:22:02.793Z,11.05
2023-03-17T00:23:05.678Z,11.93
2023-03-17T00:24:08.551Z,11.40
2023-03-17T00:25:11.519Z,11.50
2023-03-17T00:26:14.497Z,12.01
2023-03-17T00:27:17.480Z,11.57
2023-03-17T00:28:20.418Z,11.35
2023-03-17T00:29:23.436Z,11.57
2023-03-17T00:30:26.314Z,11.64
2023-03-17T00:31:29.369Z,11.43
2023-03-17T00:32:32.267Z,11.08
2023-03-17T00:33:35.341Z,11.01
2023-03-17T00:34:38.213Z,10.59
2023-03-17T00:35:41.174Z,11.11
2023-03-17T00:36:44.066Z,10.98
2023-03-17T00:37:46.937Z,11.31
2023-03-17T00:38:49.812Z,11.82
2023-03-17T00:39:52.600Z,11.62
2023-03-17T00:40:55.562Z,11.67
2023-03-17T00:41:59.463Z,11.78
2023-03-17T00:43:02.024Z,11.56
2023-03-17T00:44:04.593Z,10.99
2023-03-17T00:45:07.375Z,12.26
2023-03-17T00:46:09.987Z,11.15
2023-03-17T00:47:12.908Z,11.17
2023-03-17T00:48:15.599Z,11.25
2023-03-17T00:50:19.080Z,10.68
2023-03-17T00:51:22.256Z,10.81
2023-03-17T00:52:25.334Z,11.40
2023-03-17T00:53:28.205Z,11.05
2023-03-17T00:54:31.085Z,10.87
2023-03-17T00:55:34.270Z,11.24
2023-03-17T00:56:37.345Z,10.85
2023-03-17T00:57:40.527Z,11.03
2023-03-17T00:58:43.301Z,10.85
2023-03-17T00:59:46.283Z,10.92
2023-03-17T01:00:49.190Z,10.45
2023-03-17T01:01:52.087Z,10.73
2023-03-17T01:02:55.205Z,11.65
2023-03-17T01:03:58.085Z,14.44
2023-03-17T01:05:06.270Z,10.71
2023-03-17T01:06:05.574Z,10.63
2023-03-17T01:07:08.854Z,10.43
2023-03-17T01:08:12.058Z,10.21
2023-03-17T01:09:14.857Z,10.14
2023-03-17T01:10:17.688Z,10.09
2023-03-17T01:11:20.585Z,10.24
2023-03-17T01:12:23.334Z,10.36
2023-03-17T01:13:26.344Z,9.70
2023-03-17T01:14:29.255Z,10.36
2023-03-17T01:15:32.058Z,10.68
2023-03-17T01:16:34.988Z,10.25
2023-03-17T01:17:38.009Z,9.98
2023-03-17T01:18:41.455Z,9.32
2023-03-17T01:19:44.476Z,10.58
2023-03-17T01:20:47.246Z,10.30
2023-03-17T01:21:50.126Z,9.93
2023-03-17T01:22:52.995Z,8.82
2023-03-17T01:23:56.386Z,8.61
2023-03-17T01:24:59.258Z,8.45
2023-03-17T01:26:02.146Z,8.62
2023-03-17T01:27:05.040Z,8.29
2023-03-17T01:28:07.782Z,8.62
2023-03-17T01:29:10.764Z,8.82
2023-03-17T01:30:13.527Z,8.83
2023-03-17T01:31:16.428Z,7.85
2023-03-17T01:32:19.382Z,7.90
2023-03-17T01:33:22.254Z,7.88
2023-03-17T01:34:25.233Z,7.94
2023-03-17T01:35:27.903Z,8.02
2023-03-17T01:36:30.573Z,7.09
2023-03-17T01:37:33.369Z,5.43
2023-03-17T01:38:36.028Z,5.17
2023-03-17T01:39:38.688Z,4.48
2023-03-17T01:40:41.258Z,4.37
2023-03-17T01:41:43.834Z,4.70
2023-03-17T01:42:46.390Z,4.52
2023-03-17T01:43:49.368Z,4.93
2023-03-17T01:44:52.344Z,4.81
2023-03-17T01:45:55.171Z,4.08
2023-03-17T01:46:58.108Z,3.50
2023-03-17T01:48:00.864Z,3.80
2023-03-17T01:49:03.632Z,4.10
2023-03-17T01:50:06.712Z,3.98
2023-03-17T01:51:09.588Z,3.72
2023-03-17T01:52:12.525Z,3.92
2023-03-17T01:53:15.350Z,3.92
2023-03-17T01:54:18.324Z,3.65
2023-03-17T01:55:21.293Z,3.52
2023-03-17T01:56:24.270Z,3.08
2023-03-17T01:57:27.041Z,2.87
2023-03-17T01:58:29.924Z,2.88
2023-03-17T01:59:32.802Z,2.52
2023-03-17T02:00:35.974Z,2.46
2023-03-17T02:01:39.269Z,2.44
2023-03-17T02:02:42.137Z,2.61
2023-03-17T02:03:45.018Z,2.41
2023-03-17T02:04:47.981Z,2.28
2023-03-17T02:05:52.663Z,2.35
2023-03-17T02:06:58.289Z,2.07
2023-03-17T02:07:59.677Z,2.16
2023-03-17T02:09:02.452Z,2.01
2023-03-17T02:10:05.438Z,1.69
2023-03-17T02:11:08.420Z,1.68
2023-03-17T02:12:11.178Z,2.18
2023-03-17T02:13:14.181Z,2.55
2023-03-17T02:14:17.173Z,2.95
2023-03-17T02:15:20.118Z,2.74
2023-03-17T02:16:23.228Z,3.18
2023-03-17T02:17:26.163Z,3.25
2023-03-17T02:18:29.038Z,3.05
2023-03-17T02:19:31.811Z,3.52
2023-03-17T02:20:34.995Z,3.28
2023-03-17T02:21:38.075Z,3.58
2023-03-17T02:22:40.959Z,3.16
2023-03-17T02:23:44.028Z,3.48
2023-03-17T02:24:47.012Z,3.55
2023-03-17T02:25:49.781Z,3.86
2023-03-17T02:26:52.446Z,3.15
2023-03-17T02:27:55.115Z,3.44
2023-03-17T02:28:57.685Z,3.58
2023-03-17T02:30:00.355Z,3.96
2023-03-17T02:31:03.049Z,3.61
2023-03-17T02:32:06.003Z,3.83
2023-03-17T02:33:08.601Z,3.35
2023-03-17T02:34:11.235Z,3.57
2023-03-17T02:35:13.908Z,3.36
2023-03-17T02:36:16.518Z,3.49
2023-03-17T02:37:19.148Z,3.21
2023-03-17T02:38:21.833Z,2.86
2023-03-17T02:39:24.599Z,2.74
2023-03-17T02:40:27.429Z,2.65
2023-03-17T02:41:30.147Z,2.66
2023-03-17T02:42:32.807Z,2.71
2023-03-17T02:43:35.373Z,3.14
2023-03-17T02:44:38.041Z,3.34
2023-03-17T02:45:41.010Z,3.41
2023-03-17T02:46:43.589Z,3.46
2023-03-17T02:47:46.461Z,3.28
2023-03-17T02:48:49.147Z,3.31
2023-03-17T02:49:51.606Z,3.45
2023-03-17T02:50:54.268Z,3.49
2023-03-17T02:51:56.831Z,3.59
2023-03-17T02:52:59.912Z,3.68
2023-03-17T02:54:02.618Z,3.89
2023-03-17T02:55:05.359Z,3.57
2023-03-17T02:56:08.131Z,3.51
2023-03-17T02:57:11.009Z,3.52
2023-03-17T02:58:13.977Z,3.49
2023-03-17T02:59:16.962Z,3.95
2023-03-17T03:00:19.731Z,4.15
2023-03-17T03:01:22.647Z,4.55
2023-03-17T03:02:25.539Z,3.52
2023-03-17T03:03:28.556Z,3.60
2023-03-17T03:04:31.328Z,3.61
2023-03-17T03:05:34.317Z,3.72
2023-03-17T03:06:37.384Z,3.77
2023-03-17T03:07:40.364Z,3.64
2023-03-17T03:08:43.966Z,4.12
2023-03-17T03:09:47.037Z,3.68
2023-03-17T03:10:49.805Z,3.58
2023-03-17T03:11:52.684Z,3.68
2023-03-17T03:12:55.659Z,3.91
2023-03-17T03:13:58.736Z,3.80
2023-03-17T03:15:01.626Z,4.02
2023-03-17T03:16:04.754Z,4.72
2023-03-17T03:17:07.363Z,4.22
2023-03-17T03:18:10.237Z,4.38
2023-03-17T03:19:13.118Z,4.58
2023-03-17T03:20:15.985Z,4.46
2023-03-17T03:21:18.973Z,3.67
2023-03-17T03:22:21.841Z,3.57
2023-03-17T03:23:24.711Z,3.81
2023-03-17T03:24:27.697Z,4.25
2023-03-17T03:25:30.464Z,3.89
2023-03-17T03:26:33.436Z,3.65
2023-03-17T03:27:36.415Z,3.52
2023-03-17T03:28:39.294Z,3.91
2023-03-17T03:29:41.964Z,3.95
2023-03-17T03:30:45.237Z,3.92
2023-03-17T03:31:48.155Z,4.51
2023-03-17T03:32:51.158Z,4.42
2023-03-17T03:33:54.082Z,4.48
2023-03-17T03:34:57.073Z,4.55
2023-03-17T03:36:00.012Z,4.25
2023-03-17T03:37:02.920Z,4.19
2023-03-17T03:38:05.796Z,4.74
2023-03-17T03:39:08.554Z,4.48
2023-03-17T03:40:11.535Z,4.71
2023-03-17T03:41:14.409Z,4.73
2023-03-17T03:42:17.182Z,4.41
2023-03-17T03:43:23.691Z,4.66
2023-03-17T03:44:24.475Z,4.58
2023-03-17T03:45:27.446Z,4.20
2023-03-17T03:46:30.928Z,4.45
2023-03-17T03:47:34.012Z,4.92
2023-03-17T03:48:36.806Z,4.73
2023-03-17T03:49:39.557Z,4.60
2023-03-17T03:50:42.736Z,4.12
2023-03-17T03:51:45.604Z,3.88
2023-03-17T03:52:48.377Z,3.92
2023-03-17T03:53:51.252Z,3.50
2023-03-17T03:54:54.022Z,3.54
2023-03-17T03:55:57.402Z,3.70
2023-03-17T03:57:00.176Z,4.08
2023-03-17T03:58:03.058Z,3.91
2023-03-17T03:59:05.927Z,3.25
2023-03-17T04:00:08.943Z,3.49
2023-03-17T04:01:12.317Z,3.54
2023-03-17T04:02:15.126Z,3.12
2023-03-17T04:03:18.074Z,3.37
2023-03-17T04:04:21.161Z,3.64
2023-03-17T04:05:23.996Z,3.29
2023-03-17T04:06:26.879Z,3.05
2023-03-17T04:07:29.742Z,3.29
2023-03-17T04:08:32.668Z,3.40
2023-03-17T04:09:35.493Z,3.38
2023-03-17T04:10:38.372Z,3.45
2023-03-17T04:11:41.444Z,3.15
2023-03-17T04:12:44.318Z,2.78
2023-03-17T04:13:47.208Z,2.99
2023-03-17T04:14:50.172Z,3.45
2023-03-17T04:15:53.196Z,3.11
2023-03-17T04:16:56.355Z,3.34
2023-03-17T04:17:59.104Z,3.48
2023-03-17T04:19:02.091Z,3.48
2023-03-17T04:20:04.851Z,3.32
2023-03-17T04:21:07.729Z,3.14
2023-03-17T04:22:10.887Z,3.21
2023-03-17T04:23:13.688Z,3.22
2023-03-17T04:24:16.657Z,2.96
2023-03-17T04:25:19.544Z,3.46
2023-03-17T04:26:22.305Z,3.45
2023-03-17T04:27:25.279Z,2.95
2023-03-17T04:28:28.156Z,3.32
2023-03-17T04:29:31.038Z,3.22
2023-03-17T04:30:34.327Z,3.15
2023-03-17T04:31:37.142Z,3.73
2023-03-17T04:32:40.412Z,3.82
2023-03-17T04:33:43.262Z,3.21
2023-03-17T04:34:46.120Z,3.21
2023-03-17T04:35:49.112Z,3.29
2023-03-17T04:36:51.868Z,3.45
2023-03-17T04:37:54.850Z,3.09
2023-03-17T04:38:57.723Z,3.52
2023-03-17T04:40:00.494Z,3.22
2023-03-17T04:41:03.577Z,3.09
2023-03-17T04:42:06.550Z,3.10
2023-03-17T04:43:09.637Z,2.86
2023-03-17T04:44:12.406Z,3.10
2023-03-17T04:45:15.505Z,3.17
2023-03-17T04:46:18.354Z,3.42
2023-03-17T04:47:21.248Z,3.62
2023-03-17T04:48:24.125Z,3.56
2023-03-17T04:49:27.016Z,3.18
2023-03-17T04:50:30.197Z,3.13
2023-03-17T04:51:33.340Z,3.14
2023-03-17T04:52:36.118Z,3.74
2023-03-17T04:53:39.400Z,3.37
2023-03-17T04:54:42.375Z,3.35
2023-03-17T04:55:45.261Z,3.25
2023-03-17T04:56:48.019Z,2.98
2023-03-17T04:57:50.904Z,3.22
2023-03-17T04:58:53.881Z,3.29
2023-03-17T04:59:56.666Z,3.69
2023-03-17T05:00:59.640Z,4.16
2023-03-17T05:02:02.661Z,3.82
2023-03-17T05:03:09.076Z,3.69
2023-03-17T05:04:12.729Z,3.90
2023-03-17T05:05:14.400Z,3.21
2023-03-17T05:06:17.278Z,3.43
2023-03-17T05:07:20.158Z,3.19
2023-03-17T05:08:23.028Z,3.54
2023-03-17T05:09:26.207Z,3.65
2023-03-17T05:10:29.484Z,3.45
2023-03-17T05:11:32.362Z,3.58
2023-03-17T05:12:35.250Z,3.50
2023-03-17T05:13:38.133Z,3.45
2023-03-17T05:14:41.506Z,3.24
2023-03-17T05:15:44.380Z,3.11
2023-03-17T05:16:47.240Z,3.10
2023-03-17T05:17:50.032Z,3.18
2023-03-17T05:18:52.897Z,3.23
2023-03-17T05:19:56.122Z,3.48
2023-03-17T05:20:58.958Z,3.85
2023-03-17T05:22:01.845Z,4.02
2023-03-17T05:23:04.914Z,3.25
2023-03-17T05:24:07.676Z,3.48
2023-03-17T05:25:10.759Z,3.27
2023-03-17T05:26:13.549Z,3.52
2023-03-17T05:27:16.157Z,3.32
2023-03-17T05:28:18.990Z,3.72
2023-03-17T05:29:21.744Z,3.45
2023-03-17T05:30:24.623Z,3.67
2023-03-17T05:31:27.754Z,3.49
2023-03-17T05:32:30.725Z,3.44
2023-03-17T05:33:33.550Z,3.48
2023-03-17T05:34:36.323Z,3.88
2023-03-17T05:35:39.517Z,3.56
2023-03-17T05:36:42.177Z,3.55
2023-03-17T05:37:48.128Z,3.30
2023-03-17T05:38:51.121Z,3.81
2023-03-17T05:39:53.978Z,3.78
2023-03-17T05:40:56.948Z,3.35
2023-03-17T05:41:59.737Z,3.50
2023-03-17T05:43:02.800Z,3.49
2023-03-17T05:44:05.776Z,3.59
2023-03-17T05:45:08.856Z,3.62
2023-03-17T05:46:12.309Z,3.43
2023-03-17T05:47:14.913Z,3.74
2023-03-17T05:48:17.589Z,3.69
2023-03-17T05:49:20.262Z,3.90
2023-03-17T05:50:22.839Z,3.79
2023-03-17T05:51:25.697Z,3.83
2023-03-17T05:52:28.383Z,3.72
2023-03-17T05:53:31.044Z,3.53
2023-03-17T05:54:33.814Z,3.64
2023-03-17T05:55:36.578Z,3.64
2023-03-17T05:56:39.271Z,3.79
2023-03-17T05:57:41.822Z,3.42
2023-03-17T05:58:44.383Z,3.41
2023-03-17T05:59:46.954Z,3.73
2023-03-17T06:00:49.628Z,3.97
2023-03-17T06:01:52.604Z,3.69
2023-03-17T06:02:55.273Z,3.75
2023-03-17T06:03:57.974Z,3.75
2023-03-17T06:05:00.624Z,3.57
2023-03-17T06:06:03.180Z,3.54
2023-03-17T06:07:06.168Z,3.57
2023-03-17T06:08:08.936Z,3.95
2023-03-17T06:09:11.538Z,3.65
2023-03-17T06:10:14.280Z,3.52
2023-03-17T06:11:17.166Z,3.55
2023-03-17T06:12:20.438Z,3.75
2023-03-17T06:13:23.262Z,3.47
2023-03-17T06:14:27.200Z,3.36
2023-03-17T06:15:30.675Z,3.49
2023-03-17T06:16:33.685Z,3.63
2023-03-17T06:17:36.849Z,3.89
2023-03-17T06:18:39.726Z,4.06
2023-03-17T06:19:42.600Z,3.83
2023-03-17T06:20:45.475Z,3.90
2023-03-17T06:21:48.365Z,3.85
2023-03-17T06:23:03.432Z,3.80
2023-03-17T06:23:55.951Z,3.58
2023-03-17T06:24:58.709Z,3.45
2023-03-17T06:26:01.691Z,3.93
2023-03-17T06:27:04.564Z,3.73
2023-03-17T06:28:07.670Z,3.58
2023-03-17T06:29:10.340Z,4.28
2023-03-17T06:30:13.084Z,3.58
2023-03-17T06:31:16.339Z,3.85
2023-03-17T06:32:21.062Z,3.72
2023-03-17T06:33:23.970Z,3.84
2023-03-17T06:34:27.837Z,3.78
2023-03-17T06:35:31.484Z,3.37
2023-03-17T06:36:36.941Z,3.61
2023-03-17T06:37:39.251Z,3.57
2023-03-17T06:38:42.126Z,3.95
2023-03-17T06:39:44.893Z,3.79
2023-03-17T06:40:47.777Z,3.90
2023-03-17T06:41:51.186Z,3.61
2023-03-17T06:42:54.044Z,3.65
2023-03-17T06:43:57.436Z,3.74
2023-03-17T06:45:00.338Z,4.25
2023-03-17T06:46:03.440Z,3.95
2023-03-17T06:47:06.351Z,3.42
2023-03-17T06:48:09.299Z,3.60
2023-03-17T06:49:12.226Z,4.27
2023-03-17T06:50:14.674Z,3.58
2023-03-17T06:51:17.448Z,3.65
2023-03-17T06:52:20.426Z,3.80
2023-03-17T06:53:23.643Z,3.98
2023-03-17T06:54:26.569Z,3.60
2023-03-17T06:55:30.128Z,4.08
2023-03-17T06:56:33.357Z,4.04
2023-03-17T06:57:36.584Z,3.86
2023-03-17T06:58:39.630Z,4.22
2023-03-17T06:59:42.803Z,4.08
2023-03-17T07:00:46.077Z,4.32
2023-03-17T07:01:48.978Z,4.06
2023-03-17T07:02:52.058Z,4.07
2023-03-17T07:03:54.907Z,4.25
2023-03-17T07:04:58.236Z,3.81
2023-03-17T07:06:01.075Z,5.22
2023-03-17T07:07:03.940Z,4.77
2023-03-17T07:08:06.919Z,4.23
2023-03-17T07:09:09.794Z,4.30
2023-03-17T07:10:12.977Z,4.59
2023-03-17T07:11:15.948Z,4.21
2023-03-17T07:12:19.128Z,4.14
2023-03-17T07:13:23.130Z,3.77
2023-03-17T07:14:26.038Z,4.01
2023-03-17T07:15:29.744Z,4.31
2023-03-17T07:16:32.823Z,3.88
2023-03-17T07:17:35.760Z,3.82
2023-03-17T07:18:38.745Z,3.71
2023-03-17T07:19:41.627Z,3.70
2023-03-17T07:20:44.895Z,3.72
2023-03-17T07:21:47.784Z,3.46
2023-03-17T07:22:50.640Z,3.62
2023-03-17T07:23:54.177Z,3.43
2023-03-17T07:24:57.207Z,3.83
2023-03-17T07:26:00.225Z,3.68
2023-03-17T07:27:03.157Z,3.47
2023-03-17T07:28:05.935Z,3.56
2023-03-17T07:29:08.843Z,3.94
2023-03-17T07:30:11.583Z,3.92
2023-03-17T07:31:14.679Z,4.34
2023-03-17T07:32:17.560Z,3.78
2023-03-17T07:33:20.409Z,3.80
2023-03-17T07:34:23.311Z,3.98
2023-03-17T07:35:26.217Z,3.95
2023-03-17T07:36:29.233Z,3.94
2023-03-17T07:37:32.025Z,3.61
2023-03-17T07:38:34.891Z,3.96
2023-03-17T07:39:37.758Z,3.87
2023-03-17T07:40:40.748Z,3.99
2023-03-17T07:41:44.078Z,4.12
2023-03-17T07:42:47.096Z,3.89
2023-03-17T07:43:50.206Z,4.11
2023-03-17T07:44:53.054Z,4.18
2023-03-17T07:45:56.301Z,3.98
2023-03-17T07:47:00.191Z,3.88
2023-03-17T07:48:03.315Z,3.92
2023-03-17T07:49:06.593Z,3.90
2023-03-17T07:50:09.797Z,3.81
2023-03-17T07:51:12.960Z,3.92
2023-03-17T07:52:16.300Z,3.78
2023-03-17T07:53:19.302Z,3.68
2023-03-17T07:54:22.434Z,3.50
2023-03-17T07:55:25.382Z,3.92
2023-03-17T07:56:28.189Z,3.98
2023-03-17T07:57:31.277Z,4.36
2023-03-17T07:58:34.119Z,3.84
2023-03-17T07:59:37.010Z,3.75
2023-03-17T08:00:40.159Z,3.62
2023-03-17T08:01:43.135Z,3.76
2023-03-17T08:02:53.708Z,3.92
2023-03-17T08:03:51.108Z,4.14
2023-03-17T08:04:54.017Z,3.38
2023-03-17T08:05:56.898Z,4.16
2023-03-17T08:06:59.914Z,4.56
2023-03-17T08:08:03.198Z,3.91
2023-03-17T08:09:05.939Z,4.05
2023-03-17T08:10:08.725Z,4.13
2023-03-17T08:11:11.505Z,4.22
2023-03-17T08:12:14.164Z,4.31
2023-03-17T08:13:17.267Z,3.99
2023-03-17T08:14:20.003Z,4.12
2023-03-17T08:15:22.878Z,4.22
2023-03-17T08:16:31.677Z,3.92
2023-03-17T08:17:34.776Z,4.40
2023-03-17T08:18:37.760Z,4.46
2023-03-17T08:19:41.076Z,4.13
2023-03-17T08:20:44.332Z,4.40
2023-03-17T08:21:47.525Z,4.64
2023-03-17T08:22:50.790Z,4.07
2023-03-17T08:23:54.478Z,4.49
2023-03-17T08:24:57.475Z,4.49
2023-03-17T08:26:00.218Z,4.35
2023-03-17T08:27:03.004Z,4.05
2023-03-17T08:28:06.068Z,4.08
2023-03-17T08:29:09.257Z,4.09
2023-03-17T08:30:12.036Z,4.05
2023-03-17T08:31:14.873Z,3.91
2023-03-17T08:32:17.676Z,4.17
2023-03-17T08:33:20.513Z,4.36
2023-03-17T08:34:23.724Z,4.10
2023-03-17T08:35:26.626Z,4.55
2023-03-17T08:36:29.377Z,3.93
2023-03-17T08:37:32.154Z,4.43
2023-03-17T08:38:35.031Z,4.18
2023-03-17T08:39:38.307Z,4.08
2023-03-17T08:40:41.183Z,3.88
2023-03-17T08:41:44.051Z,4.12
2023-03-17T08:42:47.442Z,4.64
2023-03-17T08:43:50.644Z,4.66
2023-03-17T08:44:53.394Z,4.38
2023-03-17T08:45:56.401Z,4.78
2023-03-17T08:46:59.248Z,4.45
2023-03-17T08:48:03.160Z,4.63
2023-03-17T08:49:06.260Z,4.10
2023-03-17T08:50:09.108Z,4.37
2023-03-17T08:51:12.177Z,4.23
2023-03-17T08:52:15.066Z,4.20
2023-03-17T08:53:18.132Z,4.40
2023-03-17T08:54:21.026Z,4.18
2023-03-17T08:55:23.798Z,3.77
2023-03-17T08:56:26.754Z,4.00
2023-03-17T08:57:29.539Z,4.12
2023-03-17T08:58:32.515Z,4.53
2023-03-17T08:59:35.392Z,4.96
2023-03-17T09:00:38.465Z,4.75
2023-03-17T09:01:41.406Z,4.42
2023-03-17T09:02:44.262Z,4.18
2023-03-17T09:03:47.094Z,4.06
2023-03-17T09:04:50.708Z,4.68
2023-03-17T09:05:53.887Z,4.64
2023-03-17T09:07:03.820Z,4.39
2023-03-17T09:08:01.300Z,4.26
2023-03-17T09:09:04.344Z,4.30
2023-03-17T09:10:07.409Z,4.39
2023-03-17T09:11:10.516Z,4.27
2023-03-17T09:12:13.357Z,4.42
2023-03-17T09:13:16.243Z,4.38
2023-03-17T09:14:19.109Z,4.48
2023-03-17T09:15:21.979Z,4.62
2023-03-17T09:16:25.402Z,4.55
2023-03-17T09:17:29.860Z,4.25
2023-03-17T09:18:32.451Z,4.24
2023-03-17T09:19:36.457Z,4.53
2023-03-17T09:20:39.428Z,4.57
2023-03-17T09:21:42.404Z,4.82
2023-03-17T09:22:45.288Z,5.85
2023-03-17T09:23:48.374Z,4.75
2023-03-17T09:24:51.230Z,4.89
2023-03-17T09:25:54.313Z,5.04
2023-03-17T09:26:57.593Z,4.58
2023-03-17T09:28:00.476Z,4.52
2023-03-17T09:29:04.361Z,4.30
2023-03-17T09:30:07.664Z,4.54
2023-03-17T09:31:10.659Z,4.22
2023-03-17T09:32:13.826Z,4.37
2023-03-17T09:33:17.019Z,4.62
2023-03-17T09:34:19.973Z,4.70
2023-03-17T09:35:22.885Z,4.46
2023-03-17T09:36:25.928Z,5.37
2023-03-17T09:37:29.136Z,6.18
2023-03-17T09:38:31.981Z,6.65
2023-03-17T09:39:40.620Z,6.14
2023-03-17T09:40:43.265Z,8.39
2023-03-17T09:41:45.930Z,4.76
2023-03-17T09:42:48.608Z,4.16
2023-03-17T09:43:51.278Z,4.03
2023-03-17T09:44:55.891Z,4.10
2023-03-17T09:45:58.686Z,4.34
2023-03-17T09:47:01.443Z,4.82
2023-03-17T09:48:04.102Z,4.13
2023-03-17T09:49:06.974Z,4.34
2023-03-17T09:50:09.767Z,4.56
2023-03-17T09:51:12.726Z,4.42
2023-03-17T09:52:15.596Z,4.13
2023-03-17T09:53:18.795Z,4.78
2023-03-17T09:54:21.555Z,5.05
2023-03-17T09:55:24.424Z,4.56
2023-03-17T09:56:27.301Z,4.73
2023-03-17T09:57:30.498Z,5.15
2023-03-17T09:58:33.570Z,5.65
2023-03-17T09:59:36.439Z,5.06
2023-03-17T10:00:39.210Z,4.92
2023-03-17T10:01:42.152Z,4.40
2023-03-17T10:02:44.970Z,4.53
2023-03-17T10:03:48.039Z,4.60
2023-03-17T10:04:50.810Z,4.86
2023-03-17T10:05:53.819Z,5.13
2023-03-17T10:06:56.559Z,4.93
2023-03-17T10:07:59.639Z,4.78
2023-03-17T10:09:02.807Z,5.19
2023-03-17T10:10:05.705Z,4.52
2023-03-17T10:11:08.887Z,4.17
2023-03-17T10:12:11.958Z,4.77
2023-03-17T10:13:15.340Z,4.74
2023-03-17T10:14:18.539Z,4.96
2023-03-17T10:15:21.295Z,4.90
2023-03-17T10:16:26.781Z,6.33
2023-03-17T10:17:29.508Z,7.23
2023-03-17T10:18:32.496Z,5.72
2023-03-17T10:19:35.775Z,5.13
2023-03-17T10:20:38.535Z,4.89
2023-03-17T10:21:41.514Z,4.56
2023-03-17T10:22:44.398Z,4.51
2023-03-17T10:23:47.273Z,4.95
2023-03-17T10:24:50.449Z,4.60
2023-03-17T10:25:53.457Z,4.28
2023-03-17T10:26:56.398Z,4.63
2023-03-17T10:27:59.176Z,5.15
2023-03-17T10:29:02.046Z,4.67
2023-03-17T10:30:05.242Z,4.47
2023-03-17T10:31:08.076Z,5.03
2023-03-17T10:32:10.877Z,4.91
2023-03-17T10:33:13.856Z,5.06
2023-03-17T10:34:16.816Z,5.26
2023-03-17T10:35:19.979Z,5.08
2023-03-17T10:36:22.681Z,5.25
2023-03-17T10:37:25.554Z,5.16
2023-03-17T10:38:28.332Z,4.82
2023-03-17T10:39:32.899Z,4.74
2023-03-17T10:40:36.025Z,4.99
2023-03-17T10:41:38.697Z,4.85
2023-03-17T10:42:41.672Z,4.82
2023-03-17T10:43:44.556Z,5.17
2023-03-17T10:44:47.420Z,5.27
2023-03-17T10:45:50.496Z,4.82
2023-03-17T10:46:53.422Z,5.22
2023-03-17T10:47:56.262Z,5.46
2023-03-17T10:48:59.229Z,5.18
2023-03-17T10:50:01.998Z,5.48
2023-03-17T10:51:05.181Z,4.87
2023-03-17T10:52:07.534Z,5.20
2023-03-17T10:53:10.619Z,5.06
2023-03-17T10:54:13.596Z,4.86
2023-03-17T10:55:16.384Z,5.03
2023-03-17T10:56:19.408Z,5.00
2023-03-17T10:57:22.219Z,5.12
2023-03-17T10:58:24.996Z,5.02
2023-03-17T10:59:27.925Z,5.44
2023-03-17T11:00:30.964Z,5.04
2023-03-17T11:01:34.130Z,4.98
2023-03-17T11:02:37.024Z,4.85
2023-03-17T11:03:40.055Z,4.88
2023-03-17T11:04:42.852Z,5.21
2023-03-17T11:05:45.565Z,5.08
2023-03-17T11:06:48.712Z,5.03
2023-03-17T11:07:51.786Z,5.31
2023-03-17T11:08:54.702Z,4.69
2023-03-17T11:09:57.439Z,4.88
2023-03-17T11:11:00.303Z,5.04
2023-03-17T11:12:03.418Z,5.34
2023-03-17T11:13:06.179Z,5.60
2023-03-17T11:14:09.212Z,7.58
2023-03-17T11:15:12.024Z,4.82
2023-03-17T11:16:14.913Z,4.88
2023-03-17T11:17:17.976Z,4.81
2023-03-17T11:18:20.750Z,5.23
2023-03-17T11:19:23.612Z,5.13
2023-03-17T11:20:26.404Z,5.27
2023-03-17T11:21:29.261Z,5.48
2023-03-17T11:22:32.241Z,5.00
2023-03-17T11:23:35.223Z,4.72
2023-03-17T11:24:37.990Z,5.27
2023-03-17T11:25:40.767Z,5.06
2023-03-17T11:26:43.746Z,5.16
2023-03-17T11:27:46.924Z,5.50
2023-03-17T11:28:49.714Z,5.14
2023-03-17T11:29:52.474Z,4.67
2023-03-17T11:30:55.344Z,5.10
2023-03-17T11:31:58.296Z,5.26
2023-03-17T11:33:01.216Z,5.94
2023-03-17T11:34:04.072Z,5.35
2023-03-17T11:35:06.837Z,5.40
2023-03-17T11:36:09.775Z,5.31
2023-03-17T11:37:12.696Z,5.32
2023-03-17T11:38:15.566Z,5.32
2023-03-17T11:39:18.339Z,5.37
2023-03-17T11:40:21.108Z,5.51
2023-03-17T11:41:23.992Z,4.70
2023-03-17T11:42:26.859Z,5.28
2023-03-17T11:43:29.740Z,5.54
2023-03-17T11:44:32.503Z,5.44
2023-03-17T11:45:35.268Z,5.57
2023-03-17T11:46:38.048Z,4.85
2023-03-17T11:47:40.923Z,5.62
2023-03-17T11:48:44.101Z,5.47
2023-03-17T11:49:46.980Z,5.02
2023-03-17T11:50:49.660Z,5.35
2023-03-17T11:51:52.639Z,5.55
2023-03-17T11:52:55.399Z,4.92
2023-03-17T11:53:58.688Z,5.56
2023-03-17T11:55:01.458Z,5.33
2023-03-17T11:56:04.329Z,5.73
2023-03-17T11:57:07.206Z,5.64
2023-03-17T11:58:10.186Z,5.64
2023-03-17T11:59:13.479Z,5.67
2023-03-17T12:00:16.428Z,6.02
2023-03-17T12:01:19.313Z,5.88
2023-03-17T12:02:22.191Z,5.30
2023-03-17T12:03:25.018Z,5.89
2023-03-17T12:04:28.009Z,5.50
2023-03-17T12:05:31.017Z,5.80
2023-03-17T12:06:33.813Z,5.61
2023-03-17T12:07:36.568Z,5.89
2023-03-17T12:08:39.438Z,5.81
2023-03-17T12:09:42.316Z,5.79
2023-03-17T12:10:45.195Z,5.75
2023-03-17T12:11:48.055Z,5.85
2023-03-17T12:12:51.035Z,5.66
2023-03-17T12:13:53.810Z,5.65
2023-03-17T12:14:57.299Z,5.66
2023-03-17T12:16:00.149Z,6.02
2023-03-17T12:17:03.266Z,5.56
2023-03-17T12:18:08.789Z,5.92
2023-03-17T12:19:11.587Z,5.80
2023-03-17T12:20:14.577Z,6.12
2023-03-17T12:21:17.414Z,6.28
2023-03-17T12:22:20.302Z,6.45
2023-03-17T12:23:23.058Z,6.55
2023-03-17T12:24:25.940Z,6.35
2023-03-17T12:25:28.934Z,6.39
2023-03-17T12:26:32.003Z,6.15
2023-03-17T12:27:34.666Z,6.09
2023-03-17T12:28:37.235Z,6.28
2023-03-17T12:29:39.915Z,6.38
2023-03-17T12:30:42.790Z,6.56
2023-03-17T12:31:45.438Z,6.27
2023-03-17T12:32:48.223Z,6.09
2023-03-17T12:33:50.777Z,6.45
2023-03-17T12:34:54.985Z,5.87
2023-03-17T12:35:57.561Z,5.91
2023-03-17T12:37:00.039Z,6.08
2023-03-17T12:38:02.610Z,6.31
2023-03-17T12:39:05.267Z,6.65
2023-03-17T12:40:07.822Z,6.53
2023-03-17T12:41:10.917Z,6.48
2023-03-17T12:42:13.709Z,6.34
2023-03-17T12:43:16.347Z,6.64
2023-03-17T12:44:18.953Z,5.96
2023-03-17T12:45:21.592Z,6.14
2023-03-17T12:46:24.290Z,6.31
2023-03-17T12:47:26.923Z,6.29
2023-03-17T12:48:29.596Z,6.33
2023-03-17T12:49:32.261Z,6.50
2023-03-17T12:50:34.934Z,6.32
2023-03-17T12:51:38.647Z,6.36
2023-03-17T12:52:41.295Z,6.66
2023-03-17T12:53:44.069Z,6.39
2023-03-17T12:54:46.835Z,6.75
2023-03-17T12:55:49.714Z,6.48
2023-03-17T12:56:52.488Z,6.74
2023-03-17T12:57:55.366Z,6.62
2023-03-17T12:58:58.230Z,6.71
2023-03-17T13:00:01.033Z,6.81
2023-03-17T13:01:03.878Z,6.69
2023-03-17T13:02:07.173Z,6.60
2023-03-17T13:03:10.110Z,6.41
2023-03-17T13:04:12.912Z,6.29
2023-03-17T13:05:15.788Z,6.00
2023-03-17T13:06:18.563Z,6.74
2023-03-17T13:07:21.747Z,6.44
2023-03-17T13:08:24.624Z,6.35
2023-03-17T13:09:29.531Z,6.26
2023-03-17T13:10:32.001Z,6.58
2023-03-17T13:11:34.571Z,6.56
2023-03-17T13:12:37.668Z,6.05
2023-03-17T13:13:40.424Z,6.79
2023-03-17T13:14:43.327Z,6.58
2023-03-17T13:15:46.117Z,6.54
2023-03-17T13:16:48.962Z,6.72
2023-03-17T13:17:52.022Z,6.48
2023-03-17T13:18:54.795Z,6.51
2023-03-17T13:19:57.982Z,6.62
2023-03-17T13:21:00.957Z,6.24
2023-03-17T13:22:03.833Z,6.82
2023-03-17T13:23:06.909Z,6.68
2023-03-17T13:24:09.685Z,6.43
2023-03-17T13:25:12.359Z,6.59
2023-03-17T13:26:15.023Z,6.72
2023-03-17T13:27:17.694Z,6.28
2023-03-17T13:28:20.369Z,7.13
2023-03-17T13:29:22.932Z,6.59
2023-03-17T13:30:25.495Z,6.62
2023-03-17T13:31:28.219Z,6.82
2023-03-17T13:32:30.858Z,7.11
2023-03-17T13:33:33.514Z,6.88
2023-03-17T13:34:36.384Z,6.56
2023-03-17T13:35:39.209Z,6.75
2023-03-17T13:36:42.133Z,6.72
2023-03-17T13:37:45.008Z,7.14
2023-03-17T13:38:52.516Z,7.33
2023-03-17T13:39:52.836Z,7.55
2023-03-17T13:40:55.588Z,7.21
2023-03-17T13:42:01.150Z,6.98
2023-03-17T13:43:02.660Z,7.16
2023-03-17T13:44:05.752Z,6.83
2023-03-17T13:45:08.610Z,7.01
2023-03-17T13:46:11.610Z,7.32
2023-03-17T13:47:14.462Z,7.03
2023-03-17T13:48:17.435Z,6.86
2023-03-17T13:49:20.514Z,7.60
2023-03-17T13:50:23.298Z,7.82
2023-03-17T13:51:26.067Z,7.38
2023-03-17T13:52:28.834Z,7.36
2023-03-17T13:53:31.403Z,7.53
2023-03-17T13:54:34.586Z,7.25
2023-03-17T13:55:37.425Z,6.99
2023-03-17T13:56:40.237Z,7.00